sensor_id;sensor_type;location;lat;lon;timestamp;P1;durP1;ratioP1;P2;durP2;ratioP2
45784;SDS011;31489;51.404;5.474;2023-01-19T00:02:21;13.30;;;10.55;;
45784;SDS011;31489;51.404;5.474;2023-01-19T00:04:47;13.55;;;10.55;;
45784;SDS011;31489;51.404;5.474;2023-01-19T00:07:13;15.73;;;10.20;;
45784;SDS011;31489;51.404;5.474;2023-01-19T00:09:39;14.68;;;11.25;;
45784;SDS011;31489;51.404;5.474;2023-01-19T00:12:05;16.65;;;10.43;;
45784;SDS011;31489;51.404;5.474;2023-01-19T00:14:31;12.55;;;9.95;;
45784;SDS011;31489;51.404;5.474;2023-01-19T00:16:57;18.33;;;10.48;;
45784;SDS011;31489;51.404;5.474;2023-01-19T00:19:23;15.02;;;10.55;;
45784;SDS011;31489;51.404;5.474;2023-01-19T00:21:48;11.68;;;9.63;;
45784;SDS011;31489;51.404;5.474;2023-01-19T00:24:14;16.58;;;11.02;;
45784;SDS011;31489;51.404;5.474;2023-01-19T00:26:40;15.32;;;10.57;;
45784;SDS011;31489;51.404;5.474;2023-01-19T00:29:07;14.45;;;10.30;;
45784;SDS011;31489;51.404;5.474;2023-01-19T00:31:34;16.02;;;10.95;;
45784;SDS011;31489;51.404;5.474;2023-01-19T00:34:00;17.38;;;10.95;;
45784;SDS011;31489;51.404;5.474;2023-01-19T00:36:27;12.95;;;10.02;;
45784;SDS011;31489;51.404;5.474;2023-01-19T00:38:52;15.10;;;10.43;;
45784;SDS011;31489;51.404;5.474;2023-01-19T00:41:19;17.00;;;10.65;;
45784;SDS011;31489;51.404;5.474;2023-01-19T00:44:04;15.68;;;10.63;;
45784;SDS011;31489;51.404;5.474;2023-01-19T00:46:30;13.75;;;10.60;;
45784;SDS011;31489;51.404;5.474;2023-01-19T00:48:56;16.42;;;11.45;;
45784;SDS011;31489;51.404;5.474;2023-01-19T00:51:22;15.27;;;11.25;;
45784;SDS011;31489;51.404;5.474;2023-01-19T00:53:48;16.63;;;11.05;;
45784;SDS011;31489;51.404;5.474;2023-01-19T00:56:13;15.07;;;10.98;;
45784;SDS011;31489;51.404;5.474;2023-01-19T00:58:39;14.93;;;11.15;;
45784;SDS011;31489;51.404;5.474;2023-01-19T01:01:04;16.58;;;11.20;;
45784;SDS011;31489;51.404;5.474;2023-01-19T01:03:31;12.70;;;10.60;;
45784;SDS011;31489;51.404;5.474;2023-01-19T01:05:57;15.40;;;10.93;;
45784;SDS011;31489;51.404;5.474;2023-01-19T01:08:23;17.08;;;10.20;;
45784;SDS011;31489;51.404;5.474;2023-01-19T01:10:49;14.80;;;10.65;;
45784;SDS011;31489;51.404;5.474;2023-01-19T01:13:15;14.57;;;10.40;;
45784;SDS011;31489;51.404;5.474;2023-01-19T01:15:41;16.65;;;10.98;;
45784;SDS011;31489;51.404;5.474;2023-01-19T01:18:07;14.65;;;10.25;;
45784;SDS011;31489;51.404;5.474;2023-01-19T01:20:33;13.75;;;10.68;;
45784;SDS011;31489;51.404;5.474;2023-01-19T01:23:01;15.38;;;11.15;;
45784;SDS011;31489;51.404;5.474;2023-01-19T01:25:27;15.88;;;10.45;;
45784;SDS011;31489;51.404;5.474;2023-01-19T01:27:55;12.45;;;9.65;;
45784;SDS011;31489;51.404;5.474;2023-01-19T01:30:21;14.88;;;10.07;;
45784;SDS011;31489;51.404;5.474;2023-01-19T01:32:47;16.48;;;10.50;;
45784;SDS011;31489;51.404;5.474;2023-01-19T01:35:14;16.70;;;10.00;;
45784;SDS011;31489;51.404;5.474;2023-01-19T01:37:40;16.38;;;10.32;;
45784;SDS011;31489;51.404;5.474;2023-01-19T01:40:10;13.80;;;9.55;;
45784;SDS011;31489;51.404;5.474;2023-01-19T01:42:38;16.08;;;10.15;;
45784;SDS011;31489;51.404;5.474;2023-01-19T01:45:06;12.02;;;9.13;;
45784;SDS011;31489;51.404;5.474;2023-01-19T01:47:51;18.60;;;9.30;;
45784;SDS011;31489;51.404;5.474;2023-01-19T01:50:20;18.27;;;9.48;;
45784;SDS011;31489;51.404;5.474;2023-01-19T01:52:48;14.57;;;9.43;;
45784;SDS011;31489;51.404;5.474;2023-01-19T01:55:20;14.60;;;9.82;;
45784;SDS011;31489;51.404;5.474;2023-01-19T01:57:49;14.43;;;8.85;;
45784;SDS011;31489;51.404;5.474;2023-01-19T02:00:18;12.27;;;9.02;;
45784;SDS011;31489;51.404;5.474;2023-01-19T02:02:44;13.45;;;8.70;;
45784;SDS011;31489;51.404;5.474;2023-01-19T02:05:28;13.73;;;8.65;;
45784;SDS011;31489;51.404;5.474;2023-01-19T02:11:03;13.13;;;8.20;;
45784;SDS011;31489;51.404;5.474;2023-01-19T02:13:48;13.73;;;7.80;;
45784;SDS011;31489;51.404;5.474;2023-01-19T02:16:15;11.38;;;7.75;;
45784;SDS011;31489;51.404;5.474;2023-01-19T02:18:41;10.45;;;8.07;;
45784;SDS011;31489;51.404;5.474;2023-01-19T02:26:19;11.48;;;8.25;;
45784;SDS011;31489;51.404;5.474;2023-01-19T02:28:48;17.33;;;7.95;;
45784;SDS011;31489;51.404;5.474;2023-01-19T02:31:21;11.90;;;8.18;;
45784;SDS011;31489;51.404;5.474;2023-01-19T02:33:47;12.25;;;7.72;;
45784;SDS011;31489;51.404;5.474;2023-01-19T02:36:14;13.70;;;8.68;;
45784;SDS011;31489;51.404;5.474;2023-01-19T02:38:43;9.38;;;7.22;;
45784;SDS011;31489;51.404;5.474;2023-01-19T02:41:12;10.27;;;6.97;;
45784;SDS011;31489;51.404;5.474;2023-01-19T02:43:42;16.10;;;7.43;;
45784;SDS011;31489;51.404;5.474;2023-01-19T02:46:09;12.38;;;8.10;;
45784;SDS011;31489;51.404;5.474;2023-01-19T02:48:35;11.18;;;7.55;;
45784;SDS011;31489;51.404;5.474;2023-01-19T02:51:01;13.98;;;7.82;;
45784;SDS011;31489;51.404;5.474;2023-01-19T02:53:58;12.50;;;7.50;;
45784;SDS011;31489;51.404;5.474;2023-01-19T02:59:20;13.73;;;8.75;;
45784;SDS011;31489;51.404;5.474;2023-01-19T03:04:54;12.80;;;8.15;;
45784;SDS011;31489;51.404;5.474;2023-01-19T03:07:44;14.25;;;8.40;;
45784;SDS011;31489;51.404;5.474;2023-01-19T03:12:56;15.52;;;8.40;;
45784;SDS011;31489;51.404;5.474;2023-01-19T03:15:39;11.95;;;8.27;;
45784;SDS011;31489;51.404;5.474;2023-01-19T03:18:14;13.88;;;8.80;;
45784;SDS011;31489;51.404;5.474;2023-01-19T03:20:43;11.25;;;8.35;;
45784;SDS011;31489;51.404;5.474;2023-01-19T03:23:11;12.27;;;8.10;;
45784;SDS011;31489;51.404;5.474;2023-01-19T03:25:40;13.10;;;8.82;;
45784;SDS011;31489;51.404;5.474;2023-01-19T03:28:08;13.23;;;9.27;;
45784;SDS011;31489;51.404;5.474;2023-01-19T03:30:39;12.52;;;8.75;;
45784;SDS011;31489;51.404;5.474;2023-01-19T03:33:12;11.68;;;8.95;;
45784;SDS011;31489;51.404;5.474;2023-01-19T03:35:43;14.18;;;9.32;;
45784;SDS011;31489;51.404;5.474;2023-01-19T03:38:15;10.65;;;8.57;;
45784;SDS011;31489;51.404;5.474;2023-01-19T03:40:43;13.27;;;9.20;;
45784;SDS011;31489;51.404;5.474;2023-01-19T03:43:11;12.23;;;8.80;;
45784;SDS011;31489;51.404;5.474;2023-01-19T03:45:40;11.82;;;8.90;;
45784;SDS011;31489;51.404;5.474;2023-01-19T03:48:07;10.75;;;7.97;;
45784;SDS011;31489;51.404;5.474;2023-01-19T03:50:33;10.50;;;7.88;;
45784;SDS011;31489;51.404;5.474;2023-01-19T03:53:07;12.15;;;8.32;;
45784;SDS011;31489;51.404;5.474;2023-01-19T03:58:01;8.30;;;7.25;;
45784;SDS011;31489;51.404;5.474;2023-01-19T04:00:28;10.25;;;7.28;;
45784;SDS011;31489;51.404;5.474;2023-01-19T04:02:54;10.32;;;6.95;;
45784;SDS011;31489;51.404;5.474;2023-01-19T04:05:20;7.57;;;6.47;;
45784;SDS011;31489;51.404;5.474;2023-01-19T04:07:47;8.68;;;6.75;;
45784;SDS011;31489;51.404;5.474;2023-01-19T04:10:14;6.85;;;6.07;;
45784;SDS011;31489;51.404;5.474;2023-01-19T04:12:43;6.13;;;5.47;;
45784;SDS011;31489;51.404;5.474;2023-01-19T04:15:09;5.88;;;5.28;;
45784;SDS011;31489;51.404;5.474;2023-01-19T04:17:36;5.82;;;4.78;;
45784;SDS011;31489;51.404;5.474;2023-01-19T04:20:02;4.78;;;4.32;;
45784;SDS011;31489;51.404;5.474;2023-01-19T04:22:28;5.70;;;5.20;;
45784;SDS011;31489;51.404;5.474;2023-01-19T04:24:54;5.68;;;4.82;;
45784;SDS011;31489;51.404;5.474;2023-01-19T04:27:20;5.43;;;4.75;;
45784;SDS011;31489;51.404;5.474;2023-01-19T04:29:45;5.32;;;4.43;;
45784;SDS011;31489;51.404;5.474;2023-01-19T04:32:12;5.63;;;4.90;;
45784;SDS011;31489;51.404;5.474;2023-01-19T04:34:38;5.38;;;4.70;;
45784;SDS011;31489;51.404;5.474;2023-01-19T04:37:04;5.38;;;4.70;;
45784;SDS011;31489;51.404;5.474;2023-01-19T04:39:30;5.47;;;4.88;;
45784;SDS011;31489;51.404;5.474;2023-01-19T04:41:55;5.38;;;4.88;;
45784;SDS011;31489;51.404;5.474;2023-01-19T04:44:21;5.80;;;5.03;;
45784;SDS011;31489;51.404;5.474;2023-01-19T04:46:48;7.78;;;4.70;;
45784;SDS011;31489;51.404;5.474;2023-01-19T04:49:15;5.90;;;4.78;;
45784;SDS011;31489;51.404;5.474;2023-01-19T04:51:41;5.88;;;4.68;;
45784;SDS011;31489;51.404;5.474;2023-01-19T04:54:07;5.82;;;5.13;;
45784;SDS011;31489;51.404;5.474;2023-01-19T04:56:33;5.78;;;5.13;;
45784;SDS011;31489;51.404;5.474;2023-01-19T04:58:59;5.93;;;4.93;;
45784;SDS011;31489;51.404;5.474;2023-01-19T05:01:25;5.40;;;4.90;;
45784;SDS011;31489;51.404;5.474;2023-01-19T05:03:51;6.05;;;5.45;;
45784;SDS011;31489;51.404;5.474;2023-01-19T05:06:17;6.13;;;5.53;;
45784;SDS011;31489;51.404;5.474;2023-01-19T05:08:43;6.30;;;5.70;;
45784;SDS011;31489;51.404;5.474;2023-01-19T05:11:08;5.57;;;5.07;;
45784;SDS011;31489;51.404;5.474;2023-01-19T05:13:34;6.97;;;5.28;;
45784;SDS011;31489;51.404;5.474;2023-01-19T05:16:00;6.70;;;5.38;;
45784;SDS011;31489;51.404;5.474;2023-01-19T05:18:26;6.07;;;5.47;;
45784;SDS011;31489;51.404;5.474;2023-01-19T05:20:52;6.80;;;6.10;;
45784;SDS011;31489;51.404;5.474;2023-01-19T05:23:17;6.28;;;5.68;;
45784;SDS011;31489;51.404;5.474;2023-01-19T05:25:43;6.90;;;5.88;;
45784;SDS011;31489;51.404;5.474;2023-01-19T05:28:09;6.50;;;5.80;;
45784;SDS011;31489;51.404;5.474;2023-01-19T05:30:35;6.88;;;5.35;;
45784;SDS011;31489;51.404;5.474;2023-01-19T05:33:02;7.18;;;5.60;;
45784;SDS011;31489;51.404;5.474;2023-01-19T05:35:28;5.93;;;5.32;;
45784;SDS011;31489;51.404;5.474;2023-01-19T05:37:53;7.93;;;6.40;;
45784;SDS011;31489;51.404;5.474;2023-01-19T05:40:19;6.85;;;6.15;;
45784;SDS011;31489;51.404;5.474;2023-01-19T05:42:45;7.28;;;6.13;;
45784;SDS011;31489;51.404;5.474;2023-01-19T05:45:11;7.55;;;6.28;;
45784;SDS011;31489;51.404;5.474;2023-01-19T05:47:37;7.45;;;6.40;;
45784;SDS011;31489;51.404;5.474;2023-01-19T05:50:04;6.88;;;6.18;;
45784;SDS011;31489;51.404;5.474;2023-01-19T05:52:30;6.68;;;6.05;;
45784;SDS011;31489;51.404;5.474;2023-01-19T05:54:55;8.20;;;6.15;;
45784;SDS011;31489;51.404;5.474;2023-01-19T05:57:21;7.50;;;6.10;;
45784;SDS011;31489;51.404;5.474;2023-01-19T05:59:47;7.13;;;5.93;;
45784;SDS011;31489;51.404;5.474;2023-01-19T06:02:13;5.78;;;5.18;;
45784;SDS011;31489;51.404;5.474;2023-01-19T06:04:38;6.05;;;4.85;;
45784;SDS011;31489;51.404;5.474;2023-01-19T06:07:04;6.25;;;5.38;;
45784;SDS011;31489;51.404;5.474;2023-01-19T06:09:31;5.57;;;4.68;;
45784;SDS011;31489;51.404;5.474;2023-01-19T06:11:57;6.00;;;4.57;;
45784;SDS011;31489;51.404;5.474;2023-01-19T06:14:24;6.72;;;4.88;;
45784;SDS011;31489;51.404;5.474;2023-01-19T06:16:50;5.47;;;4.43;;
45784;SDS011;31489;51.404;5.474;2023-01-19T06:19:16;5.53;;;4.40;;
45784;SDS011;31489;51.404;5.474;2023-01-19T06:21:42;5.35;;;4.72;;
45784;SDS011;31489;51.404;5.474;2023-01-19T06:24:13;5.85;;;4.85;;
45784;SDS011;31489;51.404;5.474;2023-01-19T06:26:40;8.15;;;5.18;;
45784;SDS011;31489;51.404;5.474;2023-01-19T06:29:07;6.35;;;5.35;;
45784;SDS011;31489;51.404;5.474;2023-01-19T06:31:34;8.98;;;6.40;;
45784;SDS011;31489;51.404;5.474;2023-01-19T06:34:00;9.73;;;6.50;;
45784;SDS011;31489;51.404;5.474;2023-01-19T06:36:26;8.18;;;6.85;;
45784;SDS011;31489;51.404;5.474;2023-01-19T06:38:51;8.30;;;6.85;;
45784;SDS011;31489;51.404;5.474;2023-01-19T06:41:17;8.07;;;7.25;;
45784;SDS011;31489;51.404;5.474;2023-01-19T06:43:42;9.25;;;7.78;;
45784;SDS011;31489;51.404;5.474;2023-01-19T06:46:08;10.45;;;7.10;;
45784;SDS011;31489;51.404;5.474;2023-01-19T06:48:34;8.80;;;7.38;;
45784;SDS011;31489;51.404;5.474;2023-01-19T06:51:02;10.63;;;7.18;;
45784;SDS011;31489;51.404;5.474;2023-01-19T06:53:30;11.15;;;8.18;;
45784;SDS011;31489;51.404;5.474;2023-01-19T06:55:59;11.80;;;8.90;;
45784;SDS011;31489;51.404;5.474;2023-01-19T06:58:26;12.43;;;8.55;;
45784;SDS011;31489;51.404;5.474;2023-01-19T07:00:52;13.02;;;9.20;;
45784;SDS011;31489;51.404;5.474;2023-01-19T07:03:19;12.80;;;8.70;;
45784;SDS011;31489;51.404;5.474;2023-01-19T07:05:46;13.32;;;8.88;;
45784;SDS011;31489;51.404;5.474;2023-01-19T07:08:15;13.63;;;9.20;;
45784;SDS011;31489;51.404;5.474;2023-01-19T07:10:40;13.50;;;8.80;;
45784;SDS011;31489;51.404;5.474;2023-01-19T07:13:08;10.90;;;8.75;;
45784;SDS011;31489;51.404;5.474;2023-01-19T07:15:34;13.35;;;8.57;;
45784;SDS011;31489;51.404;5.474;2023-01-19T07:18:01;11.68;;;8.65;;
45784;SDS011;31489;51.404;5.474;2023-01-19T07:20:31;12.30;;;9.02;;
45784;SDS011;31489;51.404;5.474;2023-01-19T07:23:00;14.73;;;8.35;;
45784;SDS011;31489;51.404;5.474;2023-01-19T07:25:26;12.60;;;9.25;;
45784;SDS011;31489;51.404;5.474;2023-01-19T07:27:56;13.18;;;9.63;;
45784;SDS011;31489;51.404;5.474;2023-01-19T07:30:23;11.85;;;9.20;;
45784;SDS011;31489;51.404;5.474;2023-01-19T07:32:48;13.25;;;9.85;;
45784;SDS011;31489;51.404;5.474;2023-01-19T07:35:14;13.90;;;10.23;;
45784;SDS011;31489;51.404;5.474;2023-01-19T07:37:40;12.98;;;10.40;;
45784;SDS011;31489;51.404;5.474;2023-01-19T07:40:05;14.57;;;10.80;;
45784;SDS011;31489;51.404;5.474;2023-01-19T07:42:32;16.75;;;10.80;;
45784;SDS011;31489;51.404;5.474;2023-01-19T07:44:57;16.83;;;11.00;;
45784;SDS011;31489;51.404;5.474;2023-01-19T07:47:23;15.68;;;11.23;;
45784;SDS011;31489;51.404;5.474;2023-01-19T07:49:48;16.15;;;11.70;;
45784;SDS011;31489;51.404;5.474;2023-01-19T07:52:14;20.00;;;12.57;;
45784;SDS011;31489;51.404;5.474;2023-01-19T07:54:40;23.33;;;13.70;;
45784;SDS011;31489;51.404;5.474;2023-01-19T07:57:05;20.88;;;12.20;;
45784;SDS011;31489;51.404;5.474;2023-01-19T07:59:31;24.50;;;12.93;;
45784;SDS011;31489;51.404;5.474;2023-01-19T08:01:57;23.83;;;13.88;;
45784;SDS011;31489;51.404;5.474;2023-01-19T08:04:26;20.02;;;13.15;;
45784;SDS011;31489;51.404;5.474;2023-01-19T08:06:52;24.10;;;14.68;;
45784;SDS011;31489;51.404;5.474;2023-01-19T08:09:19;26.75;;;15.30;;
45784;SDS011;31489;51.404;5.474;2023-01-19T08:11:44;24.98;;;15.48;;
45784;SDS011;31489;51.404;5.474;2023-01-19T08:14:10;30.40;;;15.65;;
45784;SDS011;31489;51.404;5.474;2023-01-19T08:16:36;24.45;;;15.48;;
45784;SDS011;31489;51.404;5.474;2023-01-19T08:19:01;27.10;;;16.23;;
45784;SDS011;31489;51.404;5.474;2023-01-19T08:21:34;25.60;;;15.52;;
45784;SDS011;31489;51.404;5.474;2023-01-19T08:24:00;22.95;;;15.88;;
45784;SDS011;31489;51.404;5.474;2023-01-19T08:28:53;27.15;;;15.88;;
45784;SDS011;31489;51.404;5.474;2023-01-19T08:31:21;27.10;;;16.17;;
45784;SDS011;31489;51.404;5.474;2023-01-19T08:33:50;23.67;;;16.92;;
45784;SDS011;31489;51.404;5.474;2023-01-19T08:36:16;28.70;;;16.92;;
45784;SDS011;31489;51.404;5.474;2023-01-19T08:38:46;32.25;;;17.23;;
45784;SDS011;31489;51.404;5.474;2023-01-19T08:41:12;24.65;;;16.13;;
45784;SDS011;31489;51.404;5.474;2023-01-19T08:43:38;28.67;;;15.77;;
45784;SDS011;31489;51.404;5.474;2023-01-19T08:46:04;28.35;;;16.30;;
45784;SDS011;31489;51.404;5.474;2023-01-19T08:48:31;27.50;;;16.65;;
45784;SDS011;31489;51.404;5.474;2023-01-19T08:50:56;28.58;;;17.27;;
45784;SDS011;31489;51.404;5.474;2023-01-19T08:53:24;28.95;;;16.90;;
45784;SDS011;31489;51.404;5.474;2023-01-19T08:55:53;28.52;;;15.63;;
45784;SDS011;31489;51.404;5.474;2023-01-19T08:58:27;26.58;;;16.23;;
45784;SDS011;31489;51.404;5.474;2023-01-19T09:00:55;28.73;;;16.08;;
45784;SDS011;31489;51.404;5.474;2023-01-19T09:03:24;30.40;;;15.98;;
45784;SDS011;31489;51.404;5.474;2023-01-19T09:05:49;33.33;;;16.55;;
45784;SDS011;31489;51.404;5.474;2023-01-19T09:08:15;28.52;;;15.15;;
45784;SDS011;31489;51.404;5.474;2023-01-19T09:10:45;26.48;;;16.77;;
45784;SDS011;31489;51.404;5.474;2023-01-19T09:13:16;27.92;;;17.02;;
45784;SDS011;31489;51.404;5.474;2023-01-19T09:15:43;31.00;;;17.50;;
45784;SDS011;31489;51.404;5.474;2023-01-19T09:18:10;35.63;;;17.45;;
45784;SDS011;31489;51.404;5.474;2023-01-19T09:20:43;25.30;;;15.65;;
45784;SDS011;31489;51.404;5.474;2023-01-19T09:23:11;26.45;;;16.50;;
45784;SDS011;31489;51.404;5.474;2023-01-19T09:25:38;27.02;;;15.75;;
45784;SDS011;31489;51.404;5.474;2023-01-19T09:28:06;31.95;;;18.00;;
45784;SDS011;31489;51.404;5.474;2023-01-19T09:30:33;28.70;;;15.95;;
45784;SDS011;31489;51.404;5.474;2023-01-19T09:33:02;29.05;;;16.73;;
45784;SDS011;31489;51.404;5.474;2023-01-19T09:35:34;26.83;;;15.98;;
45784;SDS011;31489;51.404;5.474;2023-01-19T09:38:00;28.42;;;15.82;;
45784;SDS011;31489;51.404;5.474;2023-01-19T09:40:32;29.35;;;15.90;;
45784;SDS011;31489;51.404;5.474;2023-01-19T09:43:11;27.45;;;15.55;;
45784;SDS011;31489;51.404;5.474;2023-01-19T09:51:05;26.88;;;16.00;;
45784;SDS011;31489;51.404;5.474;2023-01-19T09:56:33;26.30;;;15.38;;
45784;SDS011;31489;51.404;5.474;2023-01-19T09:59:22;26.88;;;14.90;;
45784;SDS011;31489;51.404;5.474;2023-01-19T10:04:25;26.23;;;14.23;;
45784;SDS011;31489;51.404;5.474;2023-01-19T10:07:08;26.20;;;13.90;;
45784;SDS011;31489;51.404;5.474;2023-01-19T10:12:38;22.45;;;13.13;;
45784;SDS011;31489;51.404;5.474;2023-01-19T10:20:47;20.08;;;11.50;;
45784;SDS011;31489;51.404;5.474;2023-01-19T10:26:31;21.40;;;11.50;;
45784;SDS011;31489;51.404;5.474;2023-01-19T10:29:07;22.02;;;11.73;;
45784;SDS011;31489;51.404;5.474;2023-01-19T10:32:04;16.00;;;11.05;;
45784;SDS011;31489;51.404;5.474;2023-01-19T10:34:41;22.63;;;11.50;;
45784;SDS011;31489;51.404;5.474;2023-01-19T10:39:43;21.40;;;11.35;;
45784;SDS011;31489;51.404;5.474;2023-01-19T10:42:19;22.25;;;10.98;;
45784;SDS011;31489;51.404;5.474;2023-01-19T10:44:45;17.25;;;10.55;;
45784;SDS011;31489;51.404;5.474;2023-01-19T10:47:18;19.55;;;11.18;;
45784;SDS011;31489;51.404;5.474;2023-01-19T10:49:46;17.13;;;10.70;;
45784;SDS011;31489;51.404;5.474;2023-01-19T10:52:36;13.15;;;9.77;;
45784;SDS011;31489;51.404;5.474;2023-01-19T10:55:03;20.27;;;10.55;;
45784;SDS011;31489;51.404;5.474;2023-01-19T10:57:31;19.15;;;10.27;;
45784;SDS011;31489;51.404;5.474;2023-01-19T11:00:02;17.60;;;10.45;;
45784;SDS011;31489;51.404;5.474;2023-01-19T11:02:30;18.27;;;10.93;;
45784;SDS011;31489;51.404;5.474;2023-01-19T11:04:58;19.15;;;10.18;;
45784;SDS011;31489;51.404;5.474;2023-01-19T11:10:10;16.35;;;9.90;;
45784;SDS011;31489;51.404;5.474;2023-01-19T11:12:42;14.18;;;9.45;;
45784;SDS011;31489;51.404;5.474;2023-01-19T11:15:28;16.93;;;9.60;;
45784;SDS011;31489;51.404;5.474;2023-01-19T11:18:29;17.33;;;9.45;;
45784;SDS011;31489;51.404;5.474;2023-01-19T11:21:00;15.75;;;9.73;;
45784;SDS011;31489;51.404;5.474;2023-01-19T11:23:40;15.88;;;8.43;;
45784;SDS011;31489;51.404;5.474;2023-01-19T11:26:15;17.33;;;9.32;;
45784;SDS011;31489;51.404;5.474;2023-01-19T11:28:53;18.63;;;9.52;;
45784;SDS011;31489;51.404;5.474;2023-01-19T11:31:41;23.88;;;10.38;;
45784;SDS011;31489;51.404;5.474;2023-01-19T11:37:04;15.02;;;8.60;;
45784;SDS011;31489;51.404;5.474;2023-01-19T11:39:51;21.55;;;9.25;;
45784;SDS011;31489;51.404;5.474;2023-01-19T11:42:22;15.50;;;8.25;;
45784;SDS011;31489;51.404;5.474;2023-01-19T11:47:47;14.98;;;8.48;;
45784;SDS011;31489;51.404;5.474;2023-01-19T11:50:24;12.48;;;7.97;;
45784;SDS011;31489;51.404;5.474;2023-01-19T11:57:54;12.68;;;7.95;;
45784;SDS011;31489;51.404;5.474;2023-01-19T12:00:24;12.27;;;7.95;;
45784;SDS011;31489;51.404;5.474;2023-01-19T12:03:00;16.77;;;7.53;;
45784;SDS011;31489;51.404;5.474;2023-01-19T12:05:37;12.25;;;7.95;;
45784;SDS011;31489;51.404;5.474;2023-01-19T12:08:11;17.00;;;8.60;;
45784;SDS011;31489;51.404;5.474;2023-01-19T12:10:43;15.50;;;8.35;;
45784;SDS011;31489;51.404;5.474;2023-01-19T12:13:17;14.30;;;8.68;;
45784;SDS011;31489;51.404;5.474;2023-01-19T12:15:45;12.48;;;7.90;;
45784;SDS011;31489;51.404;5.474;2023-01-19T12:18:31;15.60;;;8.40;;
45784;SDS011;31489;51.404;5.474;2023-01-19T12:21:00;13.25;;;8.02;;
45784;SDS011;31489;51.404;5.474;2023-01-19T12:23:43;11.05;;;7.95;;
45784;SDS011;31489;51.404;5.474;2023-01-19T12:28:48;16.98;;;7.85;;
45784;SDS011;31489;51.404;5.474;2023-01-19T12:31:16;14.38;;;7.78;;
45784;SDS011;31489;51.404;5.474;2023-01-19T12:33:44;13.50;;;8.50;;
45784;SDS011;31489;51.404;5.474;2023-01-19T12:38:54;13.00;;;7.68;;
45784;SDS011;31489;51.404;5.474;2023-01-19T12:41:26;15.85;;;8.23;;
45784;SDS011;31489;51.404;5.474;2023-01-19T12:46:40;19.17;;;8.82;;
45784;SDS011;31489;51.404;5.474;2023-01-19T12:49:23;13.27;;;8.68;;
45784;SDS011;31489;51.404;5.474;2023-01-19T12:52:13;15.00;;;7.95;;
45784;SDS011;31489;51.404;5.474;2023-01-19T13:00:33;17.25;;;9.63;;
45784;SDS011;31489;51.404;5.474;2023-01-19T13:03:02;17.90;;;9.55;;
45784;SDS011;31489;51.404;5.474;2023-01-19T13:05:52;17.00;;;9.48;;
45784;SDS011;31489;51.404;5.474;2023-01-19T13:08:21;18.13;;;10.10;;
45784;SDS011;31489;51.404;5.474;2023-01-19T13:13:39;16.10;;;9.93;;
45784;SDS011;31489;51.404;5.474;2023-01-19T13:18:47;17.52;;;10.30;;
45784;SDS011;31489;51.404;5.474;2023-01-19T13:21:25;18.70;;;11.15;;
45784;SDS011;31489;51.404;5.474;2023-01-19T13:23:53;18.55;;;11.93;;
45784;SDS011;31489;51.404;5.474;2023-01-19T13:26:21;18.65;;;11.38;;
45784;SDS011;31489;51.404;5.474;2023-01-19T13:28:52;22.02;;;12.45;;
45784;SDS011;31489;51.404;5.474;2023-01-19T13:31:21;21.90;;;12.27;;
45784;SDS011;31489;51.404;5.474;2023-01-19T13:33:52;28.38;;;13.57;;
45784;SDS011;31489;51.404;5.474;2023-01-19T13:36:30;20.92;;;12.07;;
45784;SDS011;31489;51.404;5.474;2023-01-19T13:39:06;20.73;;;12.20;;
45784;SDS011;31489;51.404;5.474;2023-01-19T13:41:39;23.40;;;12.48;;
45784;SDS011;31489;51.404;5.474;2023-01-19T13:46:36;26.10;;;12.85;;
45784;SDS011;31489;51.404;5.474;2023-01-19T13:49:12;27.65;;;13.73;;
45784;SDS011;31489;51.404;5.474;2023-01-19T13:54:31;24.23;;;13.95;;
45784;SDS011;31489;51.404;5.474;2023-01-19T13:56:57;23.85;;;12.73;;
45784;SDS011;31489;51.404;5.474;2023-01-19T13:59:22;30.08;;;13.60;;
45784;SDS011;31489;51.404;5.474;2023-01-19T14:01:51;29.15;;;12.85;;
45784;SDS011;31489;51.404;5.474;2023-01-19T14:06:52;18.73;;;12.82;;
45784;SDS011;31489;51.404;5.474;2023-01-19T14:09:20;22.30;;;12.90;;
45784;SDS011;31489;51.404;5.474;2023-01-19T14:12:02;23.15;;;12.25;;
45784;SDS011;31489;51.404;5.474;2023-01-19T14:14:43;20.80;;;12.65;;
45784;SDS011;31489;51.404;5.474;2023-01-19T14:17:27;18.02;;;11.20;;
45784;SDS011;31489;51.404;5.474;2023-01-19T14:19:58;18.42;;;11.52;;
45784;SDS011;31489;51.404;5.474;2023-01-19T14:25:23;18.58;;;11.40;;
45784;SDS011;31489;51.404;5.474;2023-01-19T14:38:46;19.90;;;11.38;;
45784;SDS011;31489;51.404;5.474;2023-01-19T14:41:35;24.52;;;11.45;;
45784;SDS011;31489;51.404;5.474;2023-01-19T14:44:09;25.17;;;11.18;;
45784;SDS011;31489;51.404;5.474;2023-01-19T14:46:35;18.23;;;9.82;;
45784;SDS011;31489;51.404;5.474;2023-01-19T14:49:02;20.98;;;10.68;;
45784;SDS011;31489;51.404;5.474;2023-01-19T14:51:29;21.02;;;10.75;;
45784;SDS011;31489;51.404;5.474;2023-01-19T14:53:56;18.45;;;10.60;;
45784;SDS011;31489;51.404;5.474;2023-01-19T14:56:26;18.83;;;10.32;;
45784;SDS011;31489;51.404;5.474;2023-01-19T14:58:54;19.67;;;11.23;;
45784;SDS011;31489;51.404;5.474;2023-01-19T15:01:21;16.88;;;10.27;;
45784;SDS011;31489;51.404;5.474;2023-01-19T15:03:48;19.92;;;10.10;;
45784;SDS011;31489;51.404;5.474;2023-01-19T15:06:15;19.60;;;10.27;;
45784;SDS011;31489;51.404;5.474;2023-01-19T15:08:43;20.38;;;10.35;;
45784;SDS011;31489;51.404;5.474;2023-01-19T15:11:18;19.90;;;11.65;;
45784;SDS011;31489;51.404;5.474;2023-01-19T15:13:46;20.48;;;10.25;;
45784;SDS011;31489;51.404;5.474;2023-01-19T15:16:13;19.25;;;10.40;;
45784;SDS011;31489;51.404;5.474;2023-01-19T15:18:38;18.48;;;10.63;;
45784;SDS011;31489;51.404;5.474;2023-01-19T15:21:04;21.88;;;12.02;;
45784;SDS011;31489;51.404;5.474;2023-01-19T15:23:30;20.80;;;11.18;;
45784;SDS011;31489;51.404;5.474;2023-01-19T15:26:00;22.15;;;11.00;;
45784;SDS011;31489;51.404;5.474;2023-01-19T15:28:28;18.42;;;11.13;;
45784;SDS011;31489;51.404;5.474;2023-01-19T15:30:54;19.23;;;11.80;;
45784;SDS011;31489;51.404;5.474;2023-01-19T15:33:25;19.45;;;11.30;;
45784;SDS011;31489;51.404;5.474;2023-01-19T15:35:54;25.13;;;12.18;;
45784;SDS011;31489;51.404;5.474;2023-01-19T15:38:20;21.08;;;11.18;;
45784;SDS011;31489;51.404;5.474;2023-01-19T15:40:46;21.77;;;11.95;;
45784;SDS011;31489;51.404;5.474;2023-01-19T15:43:12;23.73;;;12.02;;
45784;SDS011;31489;51.404;5.474;2023-01-19T15:48:19;18.85;;;11.48;;
45784;SDS011;31489;51.404;5.474;2023-01-19T15:50:46;21.98;;;11.43;;
45784;SDS011;31489;51.404;5.474;2023-01-19T15:53:13;25.35;;;12.00;;
45784;SDS011;31489;51.404;5.474;2023-01-19T15:55:40;27.00;;;12.57;;
45784;SDS011;31489;51.404;5.474;2023-01-19T15:58:06;21.08;;;12.00;;
45784;SDS011;31489;51.404;5.474;2023-01-19T16:00:32;21.20;;;12.15;;
45784;SDS011;31489;51.404;5.474;2023-01-19T16:03:01;24.08;;;11.77;;
45784;SDS011;31489;51.404;5.474;2023-01-19T16:05:27;27.13;;;11.80;;
45784;SDS011;31489;51.404;5.474;2023-01-19T16:07:53;21.13;;;12.20;;
45784;SDS011;31489;51.404;5.474;2023-01-19T16:10:19;24.00;;;12.02;;
45784;SDS011;31489;51.404;5.474;2023-01-19T16:12:45;24.92;;;12.45;;
45784;SDS011;31489;51.404;5.474;2023-01-19T16:15:12;21.25;;;12.57;;
45784;SDS011;31489;51.404;5.474;2023-01-19T16:17:38;22.58;;;12.70;;
45784;SDS011;31489;51.404;5.474;2023-01-19T16:20:04;23.65;;;13.18;;
45784;SDS011;31489;51.404;5.474;2023-01-19T16:22:31;24.52;;;13.68;;
45784;SDS011;31489;51.404;5.474;2023-01-19T16:24:57;23.17;;;13.13;;
45784;SDS011;31489;51.404;5.474;2023-01-19T16:27:23;25.80;;;13.05;;